sensor_id;sensor_type;location;lat;lon;timestamp;P1;durP1;ratioP1;P2;durP2;ratioP2
77026;SDS011;65956;52.986;17.490;2023-08-06T03:28:33;5.60;;;2.40;;
77026;SDS011;65956;52.986;17.490;2023-08-06T03:31:00;4.40;;;2.60;;
77026;SDS011;65956;52.986;17.490;2023-08-06T03:33:30;4.70;;;2.50;;
77026;SDS011;65956;52.986;17.490;2023-08-06T03:35:58;5.20;;;2.30;;
77026;SDS011;65956;52.986;17.490;2023-08-06T03:38:24;4.50;;;2.20;;
77026;SDS011;65956;52.986;17.490;2023-08-06T03:40:50;5.50;;;2.30;;
77026;SDS011;65956;52.986;17.490;2023-08-06T03:43:16;4.20;;;2.50;;
77026;SDS011;65956;52.986;17.490;2023-08-06T03:45:43;5.50;;;2.30;;
77026;SDS011;65956;52.986;17.490;2023-08-06T03:48:09;5.40;;;2.50;;
77026;SDS011;65956;52.986;17.490;2023-08-06T03:50:36;4.90;;;2.80;;
77026;SDS011;65956;52.986;17.490;2023-08-06T03:53:02;5.20;;;2.80;;
77026;SDS011;65956;52.986;17.490;2023-08-06T03:55:28;5.10;;;2.70;;
77026;SDS011;65956;52.986;17.490;2023-08-06T03:57:54;5.40;;;3.20;;
77026;SDS011;65956;52.986;17.490;2023-08-06T04:00:21;6.10;;;3.20;;
77026;SDS011;65956;52.986;17.490;2023-08-06T04:02:48;5.30;;;2.90;;
77026;SDS011;65956;52.986;17.490;2023-08-06T04:05:15;5.10;;;2.70;;
77026;SDS011;65956;52.986;17.490;2023-08-06T04:07:42;4.90;;;2.90;;
77026;SDS011;65956;52.986;17.490;2023-08-06T04:10:08;6.40;;;3.40;;
77026;SDS011;65956;52.986;17.490;2023-08-06T04:12:34;4.80;;;2.80;;
77026;SDS011;65956;52.986;17.490;2023-08-06T04:15:02;4.90;;;2.70;;
77026;SDS011;65956;52.986;17.490;2023-08-06T04:17:29;5.00;;;3.30;;
77026;SDS011;65956;52.986;17.490;2023-08-06T04:19:55;5.40;;;3.20;;
77026;SDS011;65956;52.986;17.490;2023-08-06T04:22:24;6.30;;;3.30;;
77026;SDS011;65956;52.986;17.490;2023-08-06T04:24:50;4.70;;;2.90;;
77026;SDS011;65956;52.986;17.490;2023-08-06T04:27:17;5.00;;;3.00;;
77026;SDS011;65956;52.986;17.490;2023-08-06T04:29:45;4.30;;;2.70;;
77026;SDS011;65956;52.986;17.490;2023-08-06T04:32:11;4.30;;;2.50;;
77026;SDS011;65956;52.986;17.490;2023-08-06T04:37:09;5.80;;;2.60;;
77026;SDS011;65956;52.986;17.490;2023-08-06T04:39:35;5.00;;;2.70;;
77026;SDS011;65956;52.986;17.490;2023-08-06T04:42:04;4.60;;;2.90;;
77026;SDS011;65956;52.986;17.490;2023-08-06T04:44:31;4.80;;;2.90;;
77026;SDS011;65956;52.986;17.490;2023-08-06T04:46:57;4.00;;;2.50;;
77026;SDS011;65956;52.986;17.490;2023-08-06T04:49:23;4.00;;;2.40;;
77026;SDS011;65956;52.986;17.490;2023-08-06T04:51:49;6.40;;;2.80;;
77026;SDS011;65956;52.986;17.490;2023-08-06T04:54:15;3.70;;;2.30;;
77026;SDS011;65956;52.986;17.490;2023-08-06T04:56:41;3.90;;;2.50;;
77026;SDS011;65956;52.986;17.490;2023-08-06T04:59:07;4.50;;;2.50;;
77026;SDS011;65956;52.986;17.490;2023-08-06T05:01:32;3.90;;;2.20;;
77026;SDS011;65956;52.986;17.490;2023-08-06T05:03:58;4.20;;;2.20;;
77026;SDS011;65956;52.986;17.490;2023-08-06T05:06:24;4.00;;;2.20;;
77026;SDS011;65956;52.986;17.490;2023-08-06T05:08:50;4.10;;;2.30;;
77026;SDS011;65956;52.986;17.490;2023-08-06T05:11:16;3.80;;;2.00;;
77026;SDS011;65956;52.986;17.490;2023-08-06T05:13:42;3.60;;;2.00;;
77026;SDS011;65956;52.986;17.490;2023-08-06T05:16:08;4.50;;;2.50;;
77026;SDS011;65956;52.986;17.490;2023-08-06T05:18:34;4.00;;;1.60;;
77026;SDS011;65956;52.986;17.490;2023-08-06T05:21:00;3.30;;;1.60;;
77026;SDS011;65956;52.986;17.490;2023-08-06T05:23:26;3.10;;;1.60;;
77026;SDS011;65956;52.986;17.490;2023-08-06T05:25:52;3.40;;;1.80;;
77026;SDS011;65956;52.986;17.490;2023-08-06T05:28:18;3.60;;;1.90;;
77026;SDS011;65956;52.986;17.490;2023-08-06T05:30:44;3.30;;;1.80;;
77026;SDS011;65956;52.986;17.490;2023-08-06T05:33:10;3.60;;;1.90;;
77026;SDS011;65956;52.986;17.490;2023-08-06T05:35:36;3.30;;;1.70;;
77026;SDS011;65956;52.986;17.490;2023-08-06T05:38:02;3.40;;;1.80;;
77026;SDS011;65956;52.986;17.490;2023-08-06T05:40:27;3.30;;;1.80;;
77026;SDS011;65956;52.986;17.490;2023-08-06T05:42:54;3.50;;;1.60;;
77026;SDS011;65956;52.986;17.490;2023-08-06T05:45:20;3.80;;;1.70;;
77026;SDS011;65956;52.986;17.490;2023-08-06T05:47:50;4.00;;;2.20;;
77026;SDS011;65956;52.986;17.490;2023-08-06T05:50:15;3.90;;;1.80;;
77026;SDS011;65956;52.986;17.490;2023-08-06T05:52:41;3.00;;;1.40;;
77026;SDS011;65956;52.986;17.490;2023-08-06T05:55:08;3.40;;;1.90;;
77026;SDS011;65956;52.986;17.490;2023-08-06T05:57:34;3.80;;;1.60;;
77026;SDS011;65956;52.986;17.490;2023-08-06T06:00:00;3.50;;;1.70;;
77026;SDS011;65956;52.986;17.490;2023-08-06T06:02:26;3.70;;;1.60;;
77026;SDS011;65956;52.986;17.490;2023-08-06T06:04:52;3.50;;;1.70;;
77026;SDS011;65956;52.986;17.490;2023-08-06T06:07:18;3.90;;;1.80;;
77026;SDS011;65956;52.986;17.490;2023-08-06T06:09:44;4.60;;;1.80;;
77026;SDS011;65956;52.986;17.490;2023-08-06T06:12:10;4.10;;;1.80;;
77026;SDS011;65956;52.986;17.490;2023-08-06T06:14:36;4.20;;;1.90;;
77026;SDS011;65956;52.986;17.490;2023-08-06T06:17:02;3.60;;;1.80;;
77026;SDS011;65956;52.986;17.490;2023-08-06T06:19:28;4.20;;;2.30;;
77026;SDS011;65956;52.986;17.490;2023-08-06T06:21:54;4.30;;;2.40;;
77026;SDS011;65956;52.986;17.490;2023-08-06T06:24:23;4.10;;;2.00;;
77026;SDS011;65956;52.986;17.490;2023-08-06T06:26:49;3.80;;;2.30;;
77026;SDS011;65956;52.986;17.490;2023-08-06T06:29:15;4.10;;;2.40;;
77026;SDS011;65956;52.986;17.490;2023-08-06T06:31:41;4.10;;;2.70;;
77026;SDS011;65956;52.986;17.490;2023-08-06T06:34:07;5.30;;;2.50;;
77026;SDS011;65956;52.986;17.490;2023-08-06T06:36:32;4.90;;;2.40;;
77026;SDS011;65956;52.986;17.490;2023-08-06T06:38:58;4.50;;;2.80;;
77026;SDS011;65956;52.986;17.490;2023-08-06T06:41:24;4.00;;;2.40;;
77026;SDS011;65956;52.986;17.490;2023-08-06T06:43:52;4.20;;;2.70;;
77026;SDS011;65956;52.986;17.490;2023-08-06T06:46:18;3.10;;;1.90;;
77026;SDS011;65956;52.986;17.490;2023-08-06T06:48:44;3.70;;;2.30;;
77026;SDS011;65956;52.986;17.490;2023-08-06T06:51:10;3.10;;;1.90;;
77026;SDS011;65956;52.986;17.490;2023-08-06T06:53:35;5.20;;;2.20;;
77026;SDS011;65956;52.986;17.490;2023-08-06T06:56:02;4.40;;;2.20;;
77026;SDS011;65956;52.986;17.490;2023-08-06T06:58:30;4.00;;;2.20;;
77026;SDS011;65956;52.986;17.490;2023-08-06T07:00:57;4.10;;;2.70;;
77026;SDS011;65956;52.986;17.490;2023-08-06T07:03:23;4.20;;;2.20;;
77026;SDS011;65956;52.986;17.490;2023-08-06T07:05:50;4.70;;;2.50;;
77026;SDS011;65956;52.986;17.490;2023-08-06T07:08:16;4.60;;;2.70;;
77026;SDS011;65956;52.986;17.490;2023-08-06T07:10:43;4.70;;;2.50;;
77026;SDS011;65956;52.986;17.490;2023-08-06T07:13:09;7.90;;;4.30;;
77026;SDS011;65956;52.986;17.490;2023-08-06T07:15:36;6.70;;;3.90;;
77026;SDS011;65956;52.986;17.490;2023-08-06T07:18:02;5.80;;;4.00;;
77026;SDS011;65956;52.986;17.490;2023-08-06T07:20:28;4.80;;;2.80;;
77026;SDS011;65956;52.986;17.490;2023-08-06T07:22:58;4.80;;;2.90;;
77026;SDS011;65956;52.986;17.490;2023-08-06T07:25:26;5.70;;;2.90;;
77026;SDS011;65956;52.986;17.490;2023-08-06T07:27:52;4.80;;;2.70;;
77026;SDS011;65956;52.986;17.490;2023-08-06T07:30:18;4.50;;;2.60;;
77026;SDS011;65956;52.986;17.490;2023-08-06T07:32:44;5.10;;;3.20;;
77026;SDS011;65956;52.986;17.490;2023-08-06T07:35:10;4.90;;;3.10;;
77026;SDS011;65956;52.986;17.490;2023-08-06T07:37:38;4.70;;;2.80;;
77026;SDS011;65956;52.986;17.490;2023-08-06T07:40:05;4.60;;;2.80;;
77026;SDS011;65956;52.986;17.490;2023-08-06T07:42:31;5.00;;;3.10;;
77026;SDS011;65956;52.986;17.490;2023-08-06T07:44:58;4.10;;;2.90;;
77026;SDS011;65956;52.986;17.490;2023-08-06T07:47:27;5.30;;;3.20;;
77026;SDS011;65956;52.986;17.490;2023-08-06T07:49:52;6.10;;;3.60;;
77026;SDS011;65956;52.986;17.490;2023-08-06T07:52:18;4.70;;;3.00;;
77026;SDS011;65956;52.986;17.490;2023-08-06T07:54:44;5.70;;;4.40;;
77026;SDS011;65956;52.986;17.490;2023-08-06T07:57:11;6.40;;;4.70;;
77026;SDS011;65956;52.986;17.490;2023-08-06T07:59:37;6.50;;;5.30;;
77026;SDS011;65956;52.986;17.490;2023-08-06T08:02:03;6.30;;;5.10;;
77026;SDS011;65956;52.986;17.490;2023-08-06T08:04:29;6.90;;;4.80;;
77026;SDS011;65956;52.986;17.490;2023-08-06T08:06:55;5.90;;;4.00;;
77026;SDS011;65956;52.986;17.490;2023-08-06T08:09:21;6.50;;;4.00;;
77026;SDS011;65956;52.986;17.490;2023-08-06T08:11:47;6.10;;;3.60;;
77026;SDS011;65956;52.986;17.490;2023-08-06T08:14:13;5.00;;;3.90;;
77026;SDS011;65956;52.986;17.490;2023-08-06T08:16:39;5.20;;;2.90;;
77026;SDS011;65956;52.986;17.490;2023-08-06T08:19:05;5.50;;;3.60;;
77026;SDS011;65956;52.986;17.490;2023-08-06T08:21:31;5.90;;;3.70;;
77026;SDS011;65956;52.986;17.490;2023-08-06T08:23:59;7.10;;;3.80;;
77026;SDS011;65956;52.986;17.490;2023-08-06T08:26:27;5.00;;;3.30;;
77026;SDS011;65956;52.986;17.490;2023-08-06T08:28:55;5.50;;;3.40;;
77026;SDS011;65956;52.986;17.490;2023-08-06T08:31:22;6.30;;;3.70;;
77026;SDS011;65956;52.986;17.490;2023-08-06T08:33:48;4.50;;;3.00;;
77026;SDS011;65956;52.986;17.490;2023-08-06T08:36:14;4.90;;;2.70;;
77026;SDS011;65956;52.986;17.490;2023-08-06T08:38:40;5.10;;;3.90;;
77026;SDS011;65956;52.986;17.490;2023-08-06T08:41:09;6.50;;;4.00;;
77026;SDS011;65956;52.986;17.490;2023-08-06T08:43:35;5.70;;;4.30;;
77026;SDS011;65956;52.986;17.490;2023-08-06T08:46:02;6.50;;;4.00;;
77026;SDS011;65956;52.986;17.490;2023-08-06T08:48:31;8.00;;;4.30;;
77026;SDS011;65956;52.986;17.490;2023-08-06T08:50:57;6.20;;;3.80;;
77026;SDS011;65956;52.986;17.490;2023-08-06T08:53:24;5.60;;;3.90;;
77026;SDS011;65956;52.986;17.490;2023-08-06T08:55:52;6.30;;;3.60;;
77026;SDS011;65956;52.986;17.490;2023-08-06T08:58:19;5.00;;;2.80;;
77026;SDS011;65956;52.986;17.490;2023-08-06T09:00:45;4.70;;;3.30;;
77026;SDS011;65956;52.986;17.490;2023-08-06T09:03:13;4.80;;;3.40;;
77026;SDS011;65956;52.986;17.490;2023-08-06T09:05:43;4.90;;;3.40;;
77026;SDS011;65956;52.986;17.490;2023-08-06T09:08:11;4.60;;;3.10;;
77026;SDS011;65956;52.986;17.490;2023-08-06T09:10:42;5.00;;;3.80;;
77026;SDS011;65956;52.986;17.490;2023-08-06T09:13:09;5.80;;;3.70;;
77026;SDS011;65956;52.986;17.490;2023-08-06T09:15:37;5.70;;;3.80;;
77026;SDS011;65956;52.986;17.490;2023-08-06T09:18:10;5.70;;;3.40;;
77026;SDS011;65956;52.986;17.490;2023-08-06T09:20:37;5.70;;;3.60;;
77026;SDS011;65956;52.986;17.490;2023-08-06T09:23:07;5.30;;;3.40;;
77026;SDS011;65956;52.986;17.490;2023-08-06T09:25:36;6.10;;;4.50;;
77026;SDS011;65956;52.986;17.490;2023-08-06T09:28:05;5.30;;;3.70;;
77026;SDS011;65956;52.986;17.490;2023-08-06T09:30:35;5.30;;;4.00;;
77026;SDS011;65956;52.986;17.490;2023-08-06T09:33:02;5.50;;;3.30;;
77026;SDS011;65956;52.986;17.490;2023-08-06T09:35:29;6.60;;;4.50;;
77026;SDS011;65956;52.986;17.490;2023-08-06T09:38:09;6.20;;;4.50;;
77026;SDS011;65956;52.986;17.490;2023-08-06T09:40:37;6.40;;;4.50;;
77026;SDS011;65956;52.986;17.490;2023-08-06T09:43:04;6.10;;;3.70;;
77026;SDS011;65956;52.986;17.490;2023-08-06T09:45:32;5.60;;;4.20;;
77026;SDS011;65956;52.986;17.490;2023-08-06T09:48:00;5.80;;;3.80;;
77026;SDS011;65956;52.986;17.490;2023-08-06T09:50:29;4.80;;;3.20;;
77026;SDS011;65956;52.986;17.490;2023-08-06T09:52:57;5.50;;;3.70;;
77026;SDS011;65956;52.986;17.490;2023-08-06T09:55:25;5.80;;;3.70;;
77026;SDS011;65956;52.986;17.490;2023-08-06T09:57:52;7.50;;;4.50;;
77026;SDS011;65956;52.986;17.490;2023-08-06T10:00:19;8.20;;;5.00;;
77026;SDS011;65956;52.986;17.490;2023-08-06T10:02:46;10.10;;;6.10;;
77026;SDS011;65956;52.986;17.490;2023-08-06T10:05:14;12.00;;;6.40;;
77026;SDS011;65956;52.986;17.490;2023-08-06T10:07:42;9.20;;;5.30;;
77026;SDS011;65956;52.986;17.490;2023-08-06T10:10:10;7.00;;;5.70;;
77026;SDS011;65956;52.986;17.490;2023-08-06T10:12:40;6.50;;;5.10;;
77026;SDS011;65956;52.986;17.490;2023-08-06T10:15:13;9.80;;;7.00;;
77026;SDS011;65956;52.986;17.490;2023-08-06T10:17:43;10.80;;;7.30;;
77026;SDS011;65956;52.986;17.490;2023-08-06T10:20:12;10.40;;;8.50;;
77026;SDS011;65956;52.986;17.490;2023-08-06T10:22:42;13.60;;;10.00;;
77026;SDS011;65956;52.986;17.490;2023-08-06T10:25:15;11.30;;;7.50;;
77026;SDS011;65956;52.986;17.490;2023-08-06T10:30:24;8.80;;;5.70;;
77026;SDS011;65956;52.986;17.490;2023-08-06T10:32:51;9.80;;;5.40;;
77026;SDS011;65956;52.986;17.490;2023-08-06T10:38:17;7.40;;;4.50;;
77026;SDS011;65956;52.986;17.490;2023-08-06T10:40:48;6.10;;;4.30;;
77026;SDS011;65956;52.986;17.490;2023-08-06T10:48:34;5.80;;;3.70;;
77026;SDS011;65956;52.986;17.490;2023-08-06T10:51:02;4.50;;;3.20;;
77026;SDS011;65956;52.986;17.490;2023-08-06T10:53:29;6.00;;;4.10;;
77026;SDS011;65956;52.986;17.490;2023-08-06T10:55:55;5.40;;;3.50;;
77026;SDS011;65956;52.986;17.490;2023-08-06T10:58:21;5.30;;;3.90;;
77026;SDS011;65956;52.986;17.490;2023-08-06T11:00:47;5.20;;;3.60;;
77026;SDS011;65956;52.986;17.490;2023-08-06T11:03:14;5.30;;;3.90;;
77026;SDS011;65956;52.986;17.490;2023-08-06T11:05:40;4.50;;;3.30;;
77026;SDS011;65956;52.986;17.490;2023-08-06T11:08:06;5.20;;;3.60;;
77026;SDS011;65956;52.986;17.490;2023-08-06T11:10:32;5.00;;;4.00;;
77026;SDS011;65956;52.986;17.490;2023-08-06T11:13:03;6.30;;;3.40;;
77026;SDS011;65956;52.986;17.490;2023-08-06T11:15:32;6.50;;;4.20;;
77026;SDS011;65956;52.986;17.490;2023-08-06T11:17:58;6.00;;;4.20;;
77026;SDS011;65956;52.986;17.490;2023-08-06T11:20:24;5.70;;;4.00;;
77026;SDS011;65956;52.986;17.490;2023-08-06T11:22:50;5.80;;;4.40;;
77026;SDS011;65956;52.986;17.490;2023-08-06T11:25:19;5.80;;;4.20;;
77026;SDS011;65956;52.986;17.490;2023-08-06T11:27:47;4.80;;;3.40;;
77026;SDS011;65956;52.986;17.490;2023-08-06T11:30:14;7.30;;;4.20;;
77026;SDS011;65956;52.986;17.490;2023-08-06T11:32:46;6.00;;;4.70;;
77026;SDS011;65956;52.986;17.490;2023-08-06T11:35:17;6.10;;;4.80;;
77026;SDS011;65956;52.986;17.490;2023-08-06T11:37:44;5.60;;;3.90;;
77026;SDS011;65956;52.986;17.490;2023-08-06T11:40:12;4.90;;;3.30;;
77026;SDS011;65956;52.986;17.490;2023-08-06T11:42:40;4.70;;;3.30;;
77026;SDS011;65956;52.986;17.490;2023-08-06T11:45:08;5.60;;;3.90;;
77026;SDS011;65956;52.986;17.490;2023-08-06T11:47:38;5.60;;;3.90;;
77026;SDS011;65956;52.986;17.490;2023-08-06T11:50:08;4.40;;;3.30;;
77026;SDS011;65956;52.986;17.490;2023-08-06T11:52:34;5.10;;;3.20;;
77026;SDS011;65956;52.986;17.490;2023-08-06T11:57:33;4.30;;;3.00;;
77026;SDS011;65956;52.986;17.490;2023-08-06T12:00:07;4.60;;;2.90;;
77026;SDS011;65956;52.986;17.490;2023-08-06T12:02:43;4.20;;;2.70;;
77026;SDS011;65956;52.986;17.490;2023-08-06T12:05:14;5.40;;;3.40;;
77026;SDS011;65956;52.986;17.490;2023-08-06T12:07:42;4.70;;;3.00;;
77026;SDS011;65956;52.986;17.490;2023-08-06T12:10:12;5.40;;;3.40;;
77026;SDS011;65956;52.986;17.490;2023-08-06T12:12:39;4.00;;;2.50;;
77026;SDS011;65956;52.986;17.490;2023-08-06T12:15:06;3.60;;;2.30;;
77026;SDS011;65956;52.986;17.490;2023-08-06T12:17:33;4.00;;;2.50;;
77026;SDS011;65956;52.986;17.490;2023-08-06T12:19:59;4.70;;;2.60;;
77026;SDS011;65956;52.986;17.490;2023-08-06T12:22:26;4.50;;;3.00;;
77026;SDS011;65956;52.986;17.490;2023-08-06T12:24:52;4.50;;;2.70;;
77026;SDS011;65956;52.986;17.490;2023-08-06T12:27:18;4.40;;;2.70;;
77026;SDS011;65956;52.986;17.490;2023-08-06T12:29:45;4.10;;;2.70;;
77026;SDS011;65956;52.986;17.490;2023-08-06T12:32:14;4.10;;;2.80;;
77026;SDS011;65956;52.986;17.490;2023-08-06T12:34:41;3.90;;;2.30;;
77026;SDS011;65956;52.986;17.490;2023-08-06T12:37:08;3.80;;;2.40;;
77026;SDS011;65956;52.986;17.490;2023-08-06T12:39:37;4.40;;;2.40;;
77026;SDS011;65956;52.986;17.490;2023-08-06T12:42:04;5.70;;;2.80;;
77026;SDS011;65956;52.986;17.490;2023-08-06T12:44:31;5.40;;;2.90;;
77026;SDS011;65956;52.986;17.490;2023-08-06T12:46:59;3.20;;;1.90;;
77026;SDS011;65956;52.986;17.490;2023-08-06T12:49:25;3.50;;;2.00;;
77026;SDS011;65956;52.986;17.490;2023-08-06T12:51:52;3.80;;;2.70;;
77026;SDS011;65956;52.986;17.490;2023-08-06T12:54:19;4.80;;;3.20;;
77026;SDS011;65956;52.986;17.490;2023-08-06T12:56:46;3.80;;;2.40;;
77026;SDS011;65956;52.986;17.490;2023-08-06T12:59:14;4.60;;;3.10;;
77026;SDS011;65956;52.986;17.490;2023-08-06T13:01:41;5.10;;;3.40;;
77026;SDS011;65956;52.986;17.490;2023-08-06T13:04:08;4.20;;;1.20;;
77026;SDS011;65956;52.986;17.490;2023-08-06T13:06:34;2.10;;;0.80;;
77026;SDS011;65956;52.986;17.490;2023-08-06T13:09:02;2.00;;;0.90;;
77026;SDS011;65956;52.986;17.490;2023-08-06T13:11:30;1.30;;;0.60;;
77026;SDS011;65956;52.986;17.490;2023-08-06T13:14:04;2.10;;;0.90;;
77026;SDS011;65956;52.986;17.490;2023-08-06T13:16:32;1.80;;;0.70;;
77026;SDS011;65956;52.986;17.490;2023-08-06T13:18:59;2.00;;;0.60;;
77026;SDS011;65956;52.986;17.490;2023-08-06T13:21:31;2.40;;;1.00;;
77026;SDS011;65956;52.986;17.490;2023-08-06T13:24:22;2.70;;;1.30;;
77026;SDS011;65956;52.986;17.490;2023-08-06T13:26:49;4.50;;;1.20;;
77026;SDS011;65956;52.986;17.490;2023-08-06T13:29:16;4.00;;;2.30;;
77026;SDS011;65956;52.986;17.490;2023-08-06T13:31:42;1.50;;;0.80;;
77026;SDS011;65956;52.986;17.490;2023-08-06T13:34:08;5.80;;;4.30;;
77026;SDS011;65956;52.986;17.490;2023-08-06T13:36:36;2.00;;;0.90;;
77026;SDS011;65956;52.986;17.490;2023-08-06T13:39:02;2.20;;;0.60;;
77026;SDS011;65956;52.986;17.490;2023-08-06T13:41:31;3.30;;;1.40;;
77026;SDS011;65956;52.986;17.490;2023-08-06T13:43:57;4.80;;;3.40;;
77026;SDS011;65956;52.986;17.490;2023-08-06T13:46:29;12.10;;;10.80;;
77026;SDS011;65956;52.986;17.490;2023-08-06T13:49:00;2.40;;;1.00;;
77026;SDS011;65956;52.986;17.490;2023-08-06T13:51:35;0.80;;;0.50;;
77026;SDS011;65956;52.986;17.490;2023-08-06T13:54:05;1.20;;;0.40;;
77026;SDS011;65956;52.986;17.490;2023-08-06T13:56:36;1.00;;;0.50;;
77026;SDS011;65956;52.986;17.490;2023-08-06T14:01:35;1.10;;;0.60;;
77026;SDS011;65956;52.986;17.490;2023-08-06T14:04:02;1.10;;;0.50;;
77026;SDS011;65956;52.986;17.490;2023-08-06T14:06:28;1.30;;;0.60;;
77026;SDS011;65956;52.986;17.490;2023-08-06T14:08:55;3.20;;;0.80;;
77026;SDS011;65956;52.986;17.490;2023-08-06T14:11:22;1.70;;;0.70;;
77026;SDS011;65956;52.986;17.490;2023-08-06T14:13:48;1.30;;;0.60;;
77026;SDS011;65956;52.986;17.490;2023-08-06T14:16:20;8.60;;;7.50;;
77026;SDS011;65956;52.986;17.490;2023-08-06T14:18:46;5.10;;;1.50;;
77026;SDS011;65956;52.986;17.490;2023-08-06T14:21:15;5.50;;;4.00;;
77026;SDS011;65956;52.986;17.490;2023-08-06T14:23:41;2.20;;;1.30;;
77026;SDS011;65956;52.986;17.490;2023-08-06T14:26:07;1.90;;;0.70;;
77026;SDS011;65956;52.986;17.490;2023-08-06T14:28:36;0.80;;;0.50;;
77026;SDS011;65956;52.986;17.490;2023-08-06T14:31:02;2.40;;;1.00;;
77026;SDS011;65956;52.986;17.490;2023-08-06T14:33:28;1.70;;;0.80;;
77026;SDS011;65956;52.986;17.490;2023-08-06T14:35:54;1.00;;;0.40;;
77026;SDS011;65956;52.986;17.490;2023-08-06T14:38:20;1.10;;;0.60;;
77026;SDS011;65956;52.986;17.490;2023-08-06T14:40:47;2.50;;;0.70;;
77026;SDS011;65956;52.986;17.490;2023-08-06T14:43:17;1.80;;;0.70;;
77026;SDS011;65956;52.986;17.490;2023-08-06T14:45:44;0.90;;;0.60;;
77026;SDS011;65956;52.986;17.490;2023-08-06T14:48:11;3.90;;;1.30;;
77026;SDS011;65956;52.986;17.490;2023-08-06T14:50:37;5.20;;;2.50;;
77026;SDS011;65956;52.986;17.490;2023-08-06T14:53:05;2.50;;;0.90;;
77026;SDS011;65956;52.986;17.490;2023-08-06T14:55:32;1.60;;;0.60;;
77026;SDS011;65956;52.986;17.490;2023-08-06T14:57:58;2.00;;;0.70;;
77026;SDS011;65956;52.986;17.490;2023-08-06T15:00:30;1.10;;;0.60;;
77026;SDS011;65956;52.986;17.490;2023-08-06T15:03:05;2.40;;;1.20;;
77026;SDS011;65956;52.986;17.490;2023-08-06T15:05:31;0.60;;;0.40;;
77026;SDS011;65956;52.986;17.490;2023-08-06T15:08:01;1.60;;;0.70;;
77026;SDS011;65956;52.986;17.490;2023-08-06T15:10:30;1.10;;;0.50;;
77026;SDS011;65956;52.986;17.490;2023-08-06T15:12:56;1.10;;;0.50;;
77026;SDS011;65956;52.986;17.490;2023-08-06T15:15:23;2.50;;;0.60;;
77026;SDS011;65956;52.986;17.490;2023-08-06T15:17:49;0.80;;;0.50;;
77026;SDS011;65956;52.986;17.490;2023-08-06T15:20:16;1.50;;;0.50;;
77026;SDS011;65956;52.986;17.490;2023-08-06T15:22:47;0.90;;;0.50;;
77026;SDS011;65956;52.986;17.490;2023-08-06T15:25:14;0.80;;;0.40;;
77026;SDS011;65956;52.986;17.490;2023-08-06T15:27:40;1.60;;;0.60;;
77026;SDS011;65956;52.986;17.490;2023-08-06T15:30:09;0.90;;;0.40;;
77026;SDS011;65956;52.986;17.490;2023-08-06T15:32:35;1.00;;;0.40;;
77026;SDS011;65956;52.986;17.490;2023-08-06T15:35:08;1.10;;;0.50;;
77026;SDS011;65956;52.986;17.490;2023-08-06T15:37:35;1.50;;;0.50;;
77026;SDS011;65956;52.986;17.490;2023-08-06T15:40:02;1.50;;;0.40;;
77026;SDS011;65956;52.986;17.490;2023-08-06T15:42:29;2.00;;;0.70;;
77026;SDS011;65956;52.986;17.490;2023-08-06T15:44:55;1.20;;;0.60;;
77026;SDS011;65956;52.986;17.490;2023-08-06T15:47:21;1.80;;;0.40;;
77026;SDS011;65956;52.986;17.490;2023-08-06T15:49:48;1.70;;;0.50;;
77026;SDS011;65956;52.986;17.490;2023-08-06T15:52:14;0.80;;;0.40;;
77026;SDS011;65956;52.986;17.490;2023-08-06T15:54:48;0.40;;;0.30;;
77026;SDS011;65956;52.986;17.490;2023-08-06T15:57:15;1.30;;;0.50;;
77026;SDS011;65956;52.986;17.490;2023-08-06T15:59:42;2.20;;;0.30;;
77026;SDS011;65956;52.986;17.490;2023-08-06T16:02:09;15.00;;;6.20;;
77026;SDS011;65956;52.986;17.490;2023-08-06T16:04:35;5.20;;;2.50;;
77026;SDS011;65956;52.986;17.490;2023-08-06T16:07:02;6.20;;;2.40;;
77026;SDS011;65956;52.986;17.490;2023-08-06T16:09:32;4.20;;;1.00;;
77026;SDS011;65956;52.986;17.490;2023-08-06T16:11:58;2.70;;;0.60;;
77026;SDS011;65956;52.986;17.490;2023-08-06T16:14:24;1.90;;;0.50;;
77026;SDS011;65956;52.986;17.490;2023-08-06T16:16:50;1.50;;;0.50;;
77026;SDS011;65956;52.986;17.490;2023-08-06T16:19:16;1.90;;;0.60;;
77026;SDS011;65956;52.986;17.490;2023-08-06T16:21:42;1.00;;;0.50;;
77026;SDS011;65956;52.986;17.490;2023-08-06T16:24:08;1.10;;;0.50;;
77026;SDS011;65956;52.986;17.490;2023-08-06T16:26:34;2.00;;;0.50;;
77026;SDS011;65956;52.986;17.490;2023-08-06T16:29:01;1.90;;;0.70;;
77026;SDS011;65956;52.986;17.490;2023-08-06T16:31:28;6.70;;;3.20;;
77026;SDS011;65956;52.986;17.490;2023-08-06T16:33:54;5.20;;;1.80;;
77026;SDS011;65956;52.986;17.490;2023-08-06T16:36:20;1.50;;;0.60;;
77026;SDS011;65956;52.986;17.490;2023-08-06T16:38:46;1.90;;;0.50;;
77026;SDS011;65956;52.986;17.490;2023-08-06T16:41:12;0.90;;;0.50;;
77026;SDS011;65956;52.986;17.490;2023-08-06T16:43:38;2.00;;;0.70;;
77026;SDS011;65956;52.986;17.490;2023-08-06T16:46:04;1.10;;;0.50;;
77026;SDS011;65956;52.986;17.490;2023-08-06T16:48:30;1.40;;;0.60;;
77026;SDS011;65956;52.986;17.490;2023-08-06T16:50:59;1.90;;;0.60;;
77026;SDS011;65956;52.986;17.490;2023-08-06T16:53:26;3.60;;;1.30;;
77026;SDS011;65956;52.986;17.490;2023-08-06T16:55:53;2.30;;;0.70;;
77026;SDS011;65956;52.986;17.490;2023-08-06T16:58:20;1.50;;;0.50;;
77026;SDS011;65956;52.986;17.490;2023-08-06T17:00:47;2.80;;;0.50;;
77026;SDS011;65956;52.986;17.490;2023-08-06T17:03:14;1.90;;;0.50;;
77026;SDS011;65956;52.986;17.490;2023-08-06T17:05:45;2.20;;;0.50;;
77026;SDS011;65956;52.986;17.490;2023-08-06T17:08:11;1.90;;;0.60;;
77026;SDS011;65956;52.986;17.490;2023-08-06T17:10:37;2.70;;;0.70;;
77026;SDS011;65956;52.986;17.490;2023-08-06T17:13:04;0.40;;;0.20;;
77026;SDS011;65956;52.986;17.490;2023-08-06T17:15:30;2.20;;;0.50;;
77026;SDS011;65956;52.986;17.490;2023-08-06T17:17:58;1.80;;;0.50;;
77026;SDS011;65956;52.986;17.490;2023-08-06T17:20:24;1.30;;;0.40;;
77026;SDS011;65956;52.986;17.490;2023-08-06T17:22:50;0.80;;;0.30;;
77026;SDS011;65956;52.986;17.490;2023-08-06T17:25:17;2.10;;;0.50;;
77026;SDS011;65956;52.986;17.490;2023-08-06T17:27:46;1.60;;;0.50;;
77026;SDS011;65956;52.986;17.490;2023-08-06T17:30:12;1.60;;;0.40;;
77026;SDS011;65956;52.986;17.490;2023-08-06T17:32:38;0.90;;;0.40;;
77026;SDS011;65956;52.986;17.490;2023-08-06T17:35:09;1.20;;;0.30;;
77026;SDS011;65956;52.986;17.490;2023-08-06T17:37:35;1.20;;;0.40;;
77026;SDS011;65956;52.986;17.490;2023-08-06T17:40:01;2.70;;;0.40;;
77026;SDS011;65956;52.986;17.490;2023-08-06T17:42:29;1.80;;;0.50;;
77026;SDS011;65956;52.986;17.490;2023-08-06T17:44:55;1.10;;;0.40;;
77026;SDS011;65956;52.986;17.490;2023-08-06T17:47:21;2.50;;;0.50;;
77026;SDS011;65956;52.986;17.490;2023-08-06T17:49:48;1.40;;;0.50;;
77026;SDS011;65956;52.986;17.490;2023-08-06T17:52:14;1.40;;;0.40;;
77026;SDS011;65956;52.986;17.490;2023-08-06T17:54:40;0.90;;;0.40;;
77026;SDS011;65956;52.986;17.490;2023-08-06T17:57:06;2.30;;;0.50;;
77026;SDS011;65956;52.986;17.490;2023-08-06T17:59:32;1.60;;;0.50;;
77026;SDS011;65956;52.986;17.490;2023-08-06T18:01:58;2.80;;;0.40;;
77026;SDS011;65956;52.986;17.490;2023-08-06T18:04:24;1.80;;;0.50;;
77026;SDS011;65956;52.986;17.490;2023-08-06T18:06:50;1.70;;;0.40;;
77026;SDS011;65956;52.986;17.490;2023-08-06T18:09:16;2.30;;;0.60;;
77026;SDS011;65956;52.986;17.490;2023-08-06T18:11:43;1.50;;;0.50;;
77026;SDS011;65956;52.986;17.490;2023-08-06T18:14:09;1.20;;;0.50;;
77026;SDS011;65956;52.986;17.490;2023-08-06T18:16:35;1.40;;;0.50;;
77026;SDS011;65956;52.986;17.490;2023-08-06T18:19:01;1.30;;;0.50;;